Time;durP1;ratioP1;P1;durP2;ratioP2;P2;SDS_P1;SDS_P2;PMS_P1;PMS_P2;Temp;Humidity;BMP_temperature;BMP_pressure;BME280_temperature;BME280_humidity;BME280_pressure;Samples;Min_cycle;Max_cycle;Signal;HPM_P1;HPM_P2
2022/10/18 10:09:16;;;;;;;18.98;6.33;;;;;;;17.88;40.60;102407.34;1871741;75;27657;-94
2022/10/18 10:11:48;;;;;;;15.43;5.30;;;;;;;18.07;39.90;102410.43;1848995;77;20983;-90
2022/10/18 10:14:22;;;;;;;16.60;5.67;;;;;;;18.10;39.42;102402.26;1850123;77;21160;-94
2022/10/18 10:17:05;;;;;;;16.85;5.67;;;;;;;18.09;39.52;102392.44;1849505;77;21011;-95
2022/10/18 10:19:55;;;;;;;16.67;6.00;;;;;;;18.10;39.47;102393.53;1758914;81;21070;-93
2022/10/18 10:22:38;;;;;;;13.55;5.95;;;;;;;18.07;39.13;102389.97;1759073;81;21034;-92
2022/10/18 10:25:05;;;;;;;31.33;6.53;;;;;;;17.98;39.24;102386.66;1754519;81;20947;-92
2022/10/18 10:27:44;;;;;;;20.48;6.30;;;;;;;17.98;38.96;102383.38;1754449;81;21106;-90
2022/10/18 10:30:33;;;;;;;19.12;6.75;;;;;;;17.99;39.01;102381.47;1754170;81;21127;-94
2022/10/18 10:32:59;;;;;;;16.23;6.10;;;;;;;17.93;39.24;102377.34;1662045;85;21254;-91
2022/10/18 10:35:38;;;;;;;20.75;6.17;;;;;;;17.96;39.18;102374.62;1669643;85;21071;-92
2022/10/18 10:38:06;;;;;;;20.95;6.67;;;;;;;17.99;39.21;102367.83;1672415;85;21141;-93
2022/10/18 10:40:51;;;;;;;15.25;5.95;;;;;;;17.99;39.45;102363.19;1673106;85;21818;-94
2022/10/18 10:43:33;;;;;;;22.52;6.75;;;;;;;18.03;39.85;102362.95;1612992;88;21051;-92
2022/10/18 10:46:09;;;;;;;14.55;5.53;;;;;;;18.08;40.24;102351.22;1621358;88;21143;-96
2022/10/18 10:48:58;;;;;;;13.28;4.80;;;;;;;18.10;39.58;102349.87;1572367;91;21091;-92
2022/10/18 10:51:37;;;;;;;20.70;6.50;;;;;;;18.09;39.17;102348.23;1572578;91;21186;-96
2022/10/18 10:54:14;;;;;;;21.50;6.28;;;;;;;18.09;39.44;102344.14;1572357;91;21135;-96
2022/10/18 10:57:15;;;;;;;18.17;6.08;;;;;;;18.11;39.61;102337.86;1556014;92;21600;-96
2022/10/18 10:59:50;;;;;;;18.77;5.85;;;;;;;18.09;39.56;102335.95;1556235;92;21029;-96
2022/10/18 11:02:21;;;;;;;17.73;7.15;;;;;;;18.12;39.74;102332.69;1557119;92;21120;-95
2022/10/18 11:04:54;;;;;;;22.73;6.55;;;;;;;18.16;40.05;102329.69;1540948;92;21107;-96
2022/10/18 11:07:42;;;;;;;16.30;5.85;;;;;;;18.19;40.52;102322.88;1544570;91;21425;-95
2022/10/18 11:10:16;;;;;;;16.27;5.65;;;;;;;18.21;39.94;102319.90;1531367;93;21133;-96
2022/10/18 11:13:02;;;;;;;14.00;5.75;;;;;;;18.22;39.89;102315.52;1534515;89;21018;-96
2022/10/18 11:15:45;;;;;;;17.15;5.85;;;;;;;18.25;40.04;102312.80;1469716;97;21092;-96
2022/10/18 11:18:31;;;;;;;20.53;6.47;;;;;;;18.27;40.47;102307.35;1470440;97;21179;-96
2022/10/18 11:21:21;;;;;;;17.65;6.20;;;;;;;18.28;40.65;102301.34;1431055;98;21894;-95
2022/10/18 11:23:48;;;;;;;15.10;5.40;;;;;;;18.29;40.50;102293.42;1427636;100;21169;-96
2022/10/18 11:26:35;;;;;;;17.52;6.17;;;;;;;18.27;40.66;102292.89;1427824;99;21122;-96
2022/10/18 11:29:34;;;;;;;15.85;5.20;;;;;;;18.27;41.20;102291.53;1343329;106;21194;-96
2022/10/18 11:32:37;;;;;;;14.95;5.30;;;;;;;18.32;41.49;102295.61;1344345;106;21089;-96
2022/10/18 11:35:38;;;;;;;20.77;5.37;;;;;;;18.34;41.23;102288.80;1348253;106;21159;-96
2022/10/18 11:38:33;;;;;;;11.53;4.80;;;;;;;18.34;40.94;102286.61;1360200;105;21178;-92
2022/10/18 11:41:28;;;;;;;15.38;4.72;;;;;;;18.36;40.56;102288.54;1367205;105;21200;-91
2022/10/18 11:44:02;;;;;;;13.68;5.10;;;;;;;18.39;40.58;102279.80;1366056;105;21150;-94
2022/10/18 11:47:01;;;;;;;13.03;5.05;;;;;;;18.40;40.14;102277.34;1397957;100;21098;-93
2022/10/18 11:49:50;;;;;;;10.58;4.53;;;;;;;18.45;40.25;102266.44;1404709;100;21653;-91
2022/10/18 11:55:35;;;;;;;11.00;4.92;;;;;;;18.69;38.61;102256.34;1443145;99;21099;-91
2022/10/18 11:58:19;;;;;;;11.68;4.10;;;;;;;18.83;38.07;102251.99;1444797;99;21062;-92
2022/10/18 12:03:43;;;;;;;13.95;4.75;;;;;;;18.99;37.79;102239.12;1432456;98;21541;-88
2022/10/18 12:06:20;;;;;;;11.15;4.05;;;;;;;19.05;37.86;102229.81;1403421;100;21155;-90
2022/10/18 12:08:58;;;;;;;13.08;3.80;;;;;;;19.14;37.66;102232.80;1382331;103;21169;-89
2022/10/18 12:11:29;;;;;;;9.68;3.80;;;;;;;19.14;37.53;102225.97;1404146;101;21739;-89
2022/10/18 12:14:32;;;;;;;15.53;3.98;;;;;;;19.12;37.18;102221.31;1391738;103;21144;-89
2022/10/18 12:17:03;;;;;;;14.73;3.75;;;;;;;19.07;36.95;102220.80;1380988;101;21428;-90
2022/10/18 12:19:32;;;;;;;7.78;3.30;;;;;;;19.01;36.89;102220.55;1401383;100;21200;-89
2022/10/18 12:22:37;;;;;;;11.68;3.30;;;;;;;18.95;36.68;102211.53;1454962;98;21105;-89
2022/10/18 12:25:07;;;;;;;11.78;4.10;;;;;;;18.89;36.80;102214.01;1440777;99;21121;-91
2022/10/18 12:28:04;;;;;;;10.13;4.05;;;;;;;18.80;37.05;102202.02;1448822;99;21368;-92
2022/10/18 12:30:38;;;;;;;10.68;3.90;;;;;;;18.76;36.97;102203.08;1440330;99;21957;-89
2022/10/18 12:33:16;;;;;;;9.15;3.02;;;;;;;18.70;37.40;102193.78;1423056;99;21828;-90
2022/10/18 12:36:14;;;;;;;9.53;3.67;;;;;;;18.66;37.38;102195.44;1434485;99;21089;-89
2022/10/18 12:38:44;;;;;;;9.63;3.25;;;;;;;18.63;37.40;102194.62;1451476;98;21208;-88
2022/10/18 12:41:27;;;;;;;13.80;4.20;;;;;;;18.59;37.48;102201.19;1469602;97;21140;-92
2022/10/18 12:44:19;;;;;;;10.25;3.77;;;;;;;18.50;37.53;102187.27;1443404;97;21256;-89
2022/10/18 12:46:57;;;;;;;8.20;3.17;;;;;;;18.45;37.87;102185.08;1424478;99;21093;-89
2022/10/18 12:49:38;;;;;;;11.25;3.60;;;;;;;18.37;37.91;102191.34;1424558;99;21150;-87
2022/10/18 12:52:26;;;;;;;12.15;3.80;;;;;;;18.33;38.21;102178.53;1452716;94;21063;-89
2022/10/18 12:55:17;;;;;;;8.75;3.92;;;;;;;18.30;38.29;102183.17;1544079;91;21092;-89
2022/10/18 12:58:00;;;;;;;11.12;3.12;;;;;;;18.25;38.33;102179.89;1516485;93;21334;-90
2022/10/18 13:00:35;;;;;;;7.83;3.15;;;;;;;18.18;38.49;102168.44;1528892;92;21596;-89
2022/10/18 13:03:16;;;;;;;11.53;3.25;;;;;;;18.11;38.35;102162.41;1542400;91;21223;-89
2022/10/18 13:05:53;;;;;;;9.28;3.20;;;;;;;18.09;38.69;102164.61;1565314;90;21510;-89
2022/10/18 13:08:34;;;;;;;13.65;3.55;;;;;;;18.05;38.96;102160.22;1588269;89;21104;-89
2022/10/18 13:11:11;;;;;;;8.15;3.70;;;;;;;18.01;39.38;102155.60;1569934;90;21926;-89
2022/10/18 13:14:01;;;;;;;10.80;3.72;;;;;;;17.97;39.58;102147.14;1561301;91;21100;-89
2022/10/18 13:16:51;;;;;;;9.53;3.90;;;;;;;17.96;39.57;102147.41;1561429;91;21130;-88
2022/10/18 13:19:34;;;;;;;14.78;3.92;;;;;;;17.90;39.79;102146.02;1561043;91;21077;-89
2022/10/18 13:22:34;;;;;;;10.30;3.65;;;;;;;17.86;39.88;102143.58;1560008;91;21081;-89
2022/10/18 13:25:26;;;;;;;10.63;4.05;;;;;;;17.80;40.23;102140.57;1558615;91;21156;-89
2022/10/18 13:28:03;;;;;;;15.25;4.95;;;;;;;17.74;40.41;102140.81;1561343;91;21208;-88
2022/10/18 13:30:41;;;;;;;19.15;5.95;;;;;;;17.67;40.85;102134.23;1559195;91;21084;-89
2022/10/18 13:33:18;;;;;;;15.48;5.33;;;;;;;17.61;41.28;102129.86;1601916;86;21167;-89
2022/10/18 13:35:55;;;;;;;9.95;3.90;;;;;;;17.54;41.92;102124.67;1617960;86;21109;-89
2022/10/18 13:38:39;;;;;;;10.65;4.47;;;;;;;17.49;42.03;102120.56;1628021;88;21845;-89
2022/10/18 13:41:16;;;;;;;9.80;3.65;;;;;;;17.44;42.27;102126.84;1589681;89;21064;-89
2022/10/18 13:43:59;;;;;;;11.78;3.95;;;;;;;17.34;43.06;102121.88;1568882;90;21602;-89
2022/10/18 13:46:37;;;;;;;;;;;;;;;17.25;43.58;102116.95;1572146;91;21101;-89
2022/10/18 13:49:40;;;;;;;9.55;3.75;;;;;;;17.14;44.29;102111.73;1571802;91;20206;-89
2022/10/18 13:52:38;;;;;;;14.55;3.45;;;;;;;17.05;43.74;102110.05;1571558;91;21542;-89
2022/10/18 13:55:49;;;;;;;10.58;3.70;;;;;;;16.96;44.15;102102.13;1571604;91;21117;-89
2022/10/18 13:58:36;;;;;;;9.90;3.37;;;;;;;16.87;44.60;102100.99;1571067;91;21538;-90
2022/10/18 14:01:19;;;;;;;10.13;3.90;;;;;;;16.73;45.33;102093.26;1571559;91;21113;-89
2022/10/18 14:04:03;;;;;;;;;;;;;;;16.61;45.95;102087.20;1534559;92;21154;-90
2022/10/18 14:06:45;;;;;;;10.60;3.35;;;;;;;16.38;46.32;102090.33;1529565;92;21278;-90
2022/10/18 14:09:19;;;;;;;12.55;3.60;;;;;;;16.38;46.32;102090.33;1531072;92;21629;-90
2022/10/18 14:12:15;;;;;;;11.20;3.80;;;;;;;16.25;47.04;102083.45;1529291;92;21723;-90
2022/10/18 14:14:49;;;;;;;15.55;4.15;;;;;;;16.03;48.20;102060.42;1528912;92;21121;-90
2022/10/18 14:17:44;;;;;;;9.95;3.90;;;;;;;15.93;49.49;102082.11;1535560;89;21126;-89
2022/10/18 14:20:18;;;;;;;12.10;3.77;;;;;;;15.79;50.44;102080.34;1611866;89;21197;-89
2022/10/18 14:23:08;;;;;;;15.00;4.20;;;;;;;15.60;52.34;102071.19;1612645;89;21555;-89
2022/10/18 14:25:37;;;;;;;9.15;4.40;;;;;;;15.42;53.83;102070.20;1611543;89;21294;-89
2022/10/18 14:28:16;;;;;;;15.95;5.45;;;;;;;15.21;55.05;102068.62;1612686;89;21031;-89
2022/10/18 14:31:05;;;;;;;18.07;5.78;;;;;;;15.06;55.51;102060.81;1611257;89;21242;-89
2022/10/18 14:33:50;;;;;;;13.98;5.30;;;;;;;14.85;58.80;102063.28;1607332;88;21036;-89
2022/10/18 14:36:23;;;;;;;16.55;5.67;;;;;;;14.64;62.01;102057.31;1583537;90;21070;-89
2022/10/18 14:39:03;;;;;;;20.52;6.00;;;;;;;14.42;65.41;102058.08;1583581;90;21588;-89
2022/10/18 14:41:35;;;;;;;13.48;4.85;;;;;;;14.23;67.10;102048.02;1648070;85;21016;-89
2022/10/18 14:44:26;;;;;;;19.17;5.37;;;;;;;14.03;68.27;102049.91;1678520;85;21058;-90
2022/10/18 14:47:03;;;;;;;11.63;5.10;;;;;;;13.84;69.95;102045.78;1676671;85;21090;-89
2022/10/18 14:49:29;;;;;;;13.53;5.40;;;;;;;13.68;69.52;102050.64;1623147;88;21736;-89
2022/10/18 14:51:58;;;;;;;15.08;5.22;;;;;;;13.50;72.62;102043.56;1623078;88;21133;-88
2022/10/18 14:54:32;;;;;;;26.02;7.95;;;;;;;13.33;75.07;102044.91;1623020;88;20995;-89
2022/10/18 14:57:00;;;;;;;30.27;8.63;;;;;;;13.12;78.96;102049.89;1623274;87;21043;-88
2022/10/18 14:59:30;;;;;;;31.50;12.28;;;;;;;12.94;80.90;102050.89;1623240;88;21209;-89
2022/10/18 15:02:01;;;;;;;27.58;11.05;;;;;;;12.76;82.89;102045.62;1623245;88;21082;-88
2022/10/18 15:04:31;;;;;;;40.50;12.68;;;;;;;12.58;87.20;102054.71;1583511;89;21687;-89
2022/10/18 15:07:02;;;;;;;40.30;14.70;;;;;;;12.38;91.66;102044.29;1583187;89;21076;-89
2022/10/18 15:09:29;;;;;;;46.25;15.45;;;;;;;12.17;94.51;102042.97;1572615;90;21204;-89
2022/10/18 15:11:56;;;;;;;39.50;13.83;;;;;;;11.97;96.25;102036.58;1584261;90;21327;-88
2022/10/18 15:14:26;;;;;;;36.98;12.65;;;;;;;11.82;95.82;102036.16;1592436;90;21123;-88
2022/10/18 15:16:59;;;;;;;34.43;11.90;;;;;;;11.67;97.82;102041.99;1592076;90;22193;-88
2022/10/18 15:19:38;;;;;;;35.50;11.45;;;;;;;11.53;100.00;102036.49;1590338;88;21111;-89
2022/10/18 15:22:08;;;;;;;34.78;11.97;;;;;;;11.37;100.00;102033.93;1592137;88;21576;-88
2022/10/18 15:24:39;;;;;;;29.02;11.45;;;;;;;11.20;100.00;102040.48;1592200;90;22128;-88
2022/10/18 15:27:49;;;;;;;37.03;12.63;;;;;;;11.07;100.00;102040.14;1592052;90;21616;-88
2022/10/18 15:30:26;;;;;;;44.03;15.10;;;;;;;10.93;100.00;102036.50;1587702;90;21136;-88
2022/10/18 15:33:01;;;;;;;51.53;18.15;;;;;;;10.74;100.00;102033.00;1567878;90;21862;-89
2022/10/18 15:35:39;;;;;;;54.05;18.07;;;;;;;10.59;100.00;102035.55;1541649;91;21086;-89
2022/10/18 15:38:26;;;;;;;63.85;19.15;;;;;;;10.45;100.00;102033.50;1596741;88;21127;-90
2022/10/18 15:40:56;;;;;;;56.08;17.95;;;;;;;10.33;100.00;102035.82;1585988;90;21067;-90
2022/10/18 15:43:32;;;;;;;57.20;19.48;;;;;;;10.18;100.00;102032.09;1585615;89;21594;-90
2022/10/18 15:46:04;;;;;;;66.47;21.70;;;;;;;10.05;100.00;102020.08;1585975;90;21119;-90
2022/10/18 15:48:39;;;;;;;66.15;21.48;;;;;;;9.93;100.00;102021.33;1543811;92;21128;-89
2022/10/18 15:51:12;;;;;;;56.25;20.85;;;;;;;9.83;100.00;102016.97;1544194;92;21125;-89
2022/10/18 15:53:54;;;;;;;70.03;24.02;;;;;;;9.72;100.00;102017.97;1527653;93;21151;-90
2022/10/18 15:56:40;;;;;;;81.60;26.65;;;;;;;9.62;100.00;102018.13;1530969;93;21202;-90
2022/10/18 15:59:25;;;;;;;95.10;29.40;;;;;;;9.50;100.00;102012.13;1531195;93;21128;-90
2022/10/18 16:01:52;;;;;;;108.25;31.50;;;;;;;9.39;100.00;102011.48;1531937;93;21130;-90
2022/10/18 16:04:23;;;;;;;105.72;34.25;;;;;;;9.28;100.00;102011.64;1531167;93;21247;-90
2022/10/18 16:06:55;;;;;;;164.20;49.25;;;;;;;9.19;100.00;102004.86;1533261;92;21792;-90
2022/10/18 16:09:24;;;;;;;218.30;60.90;;;;;;;9.11;100.00;102009.14;1556115;91;21121;-90
2022/10/18 16:11:50;;;;;;;230.70;62.10;;;;;;;9.02;100.00;102005.88;1549203;92;21224;-89
2022/10/18 16:14:20;;;;;;;209.12;61.70;;;;;;;8.93;100.00;102005.00;1542931;93;21918;-89
2022/10/18 16:16:51;;;;;;;211.22;64.47;;;;;;;8.85;100.00;102004.22;1482677;96;21679;-89
2022/10/18 16:19:20;;;;;;;213.07;60.25;;;;;;;8.79;100.00;102009.59;1507428;95;21182;-89
2022/10/18 16:21:46;;;;;;;186.32;53.95;;;;;;;8.69;100.00;102001.17;1498287;94;21669;-89
2022/10/18 16:24:12;;;;;;;177.35;53.55;;;;;;;8.59;100.00;102002.98;1525981;91;21178;-90
2022/10/18 16:26:40;;;;;;;160.65;52.35;;;;;;;8.53;100.00;102003.30;1564157;91;21566;-90
2022/10/18 16:29:18;;;;;;;177.17;52.62;;;;;;;8.45;100.00;102007.55;1521333;93;21334;-90
2022/10/18 16:31:48;;;;;;;163.37;50.88;;;;;;;8.37;100.00;102001.02;1539700;92;21261;-90
2022/10/18 16:34:19;;;;;;;155.15;50.70;;;;;;;8.27;100.00;101996.09;1525508;92;21116;-90
2022/10/18 16:36:45;;;;;;;162.03;48.52;;;;;;;8.18;100.00;101991.46;1545423;92;21632;-90
2022/10/18 16:39:16;;;;;;;146.20;47.55;;;;;;;8.12;100.00;101992.30;1546326;92;21171;-90
2022/10/18 16:41:45;;;;;;;144.75;44.38;;;;;;;8.04;100.00;101989.83;1537805;91;21253;-90
2022/10/18 16:44:19;;;;;;;126.85;41.95;;;;;;;7.99;100.00;101986.93;1537438;91;21795;-89
2022/10/18 16:46:46;;;;;;;134.63;42.88;;;;;;;7.93;100.00;101986.42;1466314;96;21038;-89
2022/10/18 16:49:27;;;;;;;135.48;41.68;;;;;;;7.88;100.00;101983.03;1466517;96;21172;-89
2022/10/18 16:51:58;;;;;;;111.47;37.90;;;;;;;7.83;100.00;101984.69;1466459;96;21662;-89
2022/10/18 16:54:43;;;;;;;;;;;;;;;;;;;;;
2022/10/18 16:59:43;;;;;;;122.17;37.03;;;;;;;7.65;100.00;101973.23;1339257;106;21661;-89
2022/10/18 17:02:19;;;;;;;120.25;35.70;;;;;;;7.57;100.00;101966.20;1320294;107;21736;-89
2022/10/18 17:04:53;;;;;;;108.97;34.58;;;;;;;7.53;100.00;101962.30;1284815;110;21208;-89
2022/10/18 17:14:06;;;;;;;101.82;29.55;;;;;;;7.36;100.00;101962.37;1303108;108;21659;-89
2022/10/18 17:23:18;;;;;;;71.25;22.85;;;;;;;7.14;100.00;101947.78;1321011;107;21811;-90
2022/10/18 17:26:43;;;;;;;69.70;23.05;;;;;;;7.05;100.00;101943.13;1331581;107;21630;-90
2022/10/18 17:29:12;;;;;;;69.55;22.62;;;;;;;6.99;100.00;101933.73;1351469;103;21821;-89
2022/10/18 17:31:44;;;;;;;79.17;23.83;;;;;;;6.92;100.00;101935.59;1334452;106;21545;-89
2022/10/18 17:34:12;;;;;;;65.95;23.27;;;;;;;6.88;100.00;101932.98;1349066;106;21344;-89
2022/10/18 17:36:42;;;;;;;62.10;21.27;;;;;;;6.83;100.00;101930.41;1338268;107;21194;-89
2022/10/18 17:49:31;;;;;;;59.93;19.25;;;;;;;6.67;100.00;101915.20;1300860;108;21822;-89
2022/10/18 17:52:55;;;;;;;59.58;17.40;;;;;;;6.60;100.00;101912.51;1296235;109;21277;-88
2022/10/18 17:55:26;;;;;;;44.95;15.58;;;;;;;6.54;100.00;101914.65;1215475;115;21199;-89
2022/10/18 17:58:02;;;;;;;;;;;;;;;;;;;;;
2022/10/18 18:00:27;;;;;;;56.90;20.55;;;;;;;6.39;100.00;101909.44;1244315;113;21198;-89
2022/10/18 18:03:01;;;;;;;67.80;20.88;;;;;;;6.36;100.00;101910.66;1292631;109;21502;-89
2022/10/18 18:05:36;;;;;;;65.57;20.92;;;;;;;6.34;100.00;101902.00;1293294;109;21215;-88
2022/10/18 18:08:06;;;;;;;65.97;20.80;;;;;;;6.32;100.00;101904.06;1329326;106;21139;-90
2022/10/18 18:10:41;;;;;;;74.97;22.25;;;;;;;6.29;100.00;101899.08;1319135;107;21155;-89
2022/10/18 18:13:16;;;;;;;60.55;20.37;;;;;;;6.27;100.00;101902.49;1336886;104;21209;-88
2022/10/18 18:18:22;;;;;;;59.80;19.50;;;;;;;6.21;100.00;101900.61;1317973;107;21172;-89
2022/10/18 18:20:56;;;;;;;56.33;19.00;;;;;;;6.14;100.00;101896.54;1317905;107;21154;-89
2022/10/18 18:23:36;;;;;;;57.65;18.65;;;;;;;6.10;100.00;101893.95;1295753;110;21245;-89
2022/10/18 18:26:09;;;;;;;60.33;18.32;;;;;;;6.07;100.00;101894.87;1273093;109;21328;-89
2022/10/18 18:28:39;;;;;;;53.90;17.75;;;;;;;6.03;100.00;101889.58;1301108;110;21348;-88
2022/10/18 18:31:13;;;;;;;60.15;18.37;;;;;;;6.00;100.00;101886.81;1282578;111;21370;-89
2022/10/18 18:33:42;;;;;;;58.63;17.20;;;;;;;5.97;100.00;101889.03;1282638;111;21223;-89
2022/10/18 18:41:53;;;;;;;46.25;14.95;;;;;;;5.91;100.00;101882.10;1289598;108;20245;-89
2022/10/18 18:44:31;;;;;;;48.05;14.58;;;;;;;5.90;100.00;101879.61;1253411;114;21228;-89
2022/10/18 18:46:57;;;;;;;41.15;13.90;;;;;;;5.88;100.00;101875.81;1252314;113;21127;-88
2022/10/18 18:49:31;;;;;;;35.90;13.43;;;;;;;5.89;100.00;101868.09;1253615;113;21261;-88
2022/10/18 18:52:08;;;;;;;;;;;;;;;5.89;100.00;101866.75;1254640;113;21202;-89
2022/10/18 18:54:46;;;;;;;35.88;11.80;;;;;;;5.85;100.00;101859.30;1253456;113;20230;-88
2022/10/18 19:20:43;;;;;;;39.05;13.55;;;;;;;5.46;100.00;101837.45;1298842;108;21138;-89
2022/10/18 19:23:17;;;;;;;34.27;12.35;;;;;;;5.45;100.00;101835.81;1295859;108;21234;-88
2022/10/18 19:28:26;;;;;;;32.53;10.58;;;;;;;5.44;100.00;101828.83;1338444;107;21228;-88
2022/10/18 19:31:09;;;;;;;36.93;11.63;;;;;;;5.47;100.00;101828.92;1333008;107;21273;-89
2022/10/18 19:33:38;;;;;;;33.90;11.83;;;;;;;5.47;100.00;101826.25;1332015;106;21313;-90
2022/10/18 19:36:09;;;;;;;31.70;10.85;;;;;;;5.42;100.00;101805.47;1305716;109;21177;-89
2022/10/18 19:38:55;;;;;;;31.52;10.82;;;;;;;5.45;100.00;101810.94;1303662;109;21267;-89
2022/10/18 19:41:27;;;;;;;36.77;11.90;;;;;;;5.46;100.00;101808.57;1306813;108;21100;-89
2022/10/18 19:44:03;;;;;;;41.77;11.97;;;;;;;5.43;100.00;101797.75;1335653;105;21202;-89
2022/10/18 19:46:37;;;;;;;32.78;11.50;;;;;;;5.41;100.00;101799.81;1366361;104;21223;-88
2022/10/18 19:49:06;;;;;;;34.40;12.33;;;;;;;5.40;100.00;101798.66;1367517;103;21221;-89
2022/10/18 20:02:25;;;;;;;38.38;13.25;;;;;;;5.30;100.00;101783.50;1324241;106;21179;-88
2022/10/18 20:05:08;;;;;;;;;;;;;;;;;;;;;
2022/10/18 20:07:36;;;;;;;33.63;12.80;;;;;;;5.19;100.00;101768.81;1301161;106;21311;-89
2022/10/18 20:23:35;;;;;;;;;;;;;;;;;;;;;
2022/10/18 20:26:24;;;;;;;;;;;;;;;;;;;;;
2022/10/18 20:28:44;;;;;;;33.40;10.82;;;;;;;4.95;100.00;101734.84;1384741;102;21164;-87
2022/10/18 20:31:23;;;;;;;32.15;11.03;;;;;;;4.92;100.00;101732.56;1381173;101;21192;-88
2022/10/18 20:34:06;;;;;;;34.73;11.90;;;;;;;4.91;100.00;101730.92;1366978;103;21104;-88
2022/10/18 20:36:34;;;;;;;30.00;10.58;;;;;;;4.89;100.00;101724.94;1364337;103;21134;-87
2022/10/18 20:39:09;;;;;;;28.25;9.95;;;;;;;4.90;100.00;101720.41;1317316;105;21184;-88
2022/10/18 20:41:45;;;;;;;25.45;9.65;;;;;;;4.88;100.00;101721.96;1321982;107;21205;-87
2022/10/18 20:44:21;;;;;;;28.25;10.15;;;;;;;4.89;100.00;101708.91;1322695;107;21260;-87
2022/10/18 20:46:53;;;;;;;36.28;12.35;;;;;;;4.91;100.00;101710.03;1300636;108;21524;-87
2022/10/18 21:03:46;;;;;;;21.50;8.33;;;;;;;4.83;100.00;101682.98;1332523;106;21302;-87
2022/10/18 21:06:31;;;;;;;25.10;8.65;;;;;;;4.80;100.00;101670.54;1316850;108;21791;-88
2022/10/18 21:09:14;;;;;;;23.18;7.83;;;;;;;4.76;100.00;101673.59;1293492;110;21229;-87
2022/10/18 21:11:56;;;;;;;20.40;8.48;;;;;;;4.75;100.00;101665.77;1312330;109;21280;-87
2022/10/18 21:14:33;;;;;;;24.07;8.43;;;;;;;4.73;100.00;101655.78;1294482;108;21213;-87
2022/10/18 21:17:07;;;;;;;17.52;7.65;;;;;;;4.72;100.00;101652.81;1293375;109;21253;-87
2022/10/18 21:35:00;;;;;;;25.55;8.20;;;;;;;4.54;100.00;101625.27;1278468;111;21224;-87
2022/10/18 21:47:54;;;;;;;25.95;9.68;;;;;;;4.36;100.00;101605.73;1229065;115;21686;-87
2022/10/18 22:09:30;;;;;;;25.23;10.00;;;;;;;4.20;100.00;101585.99;1246467;113;21702;-87
2022/10/18 22:12:11;;;;;;;31.80;11.95;;;;;;;4.13;100.00;101589.95;1253316;112;21311;-87
2022/10/18 22:14:39;;;;;;;31.85;10.78;;;;;;;4.08;100.00;101581.69;1250456;111;21235;-87
2022/10/18 22:17:20;;;;;;;36.40;12.25;;;;;;;4.04;100.00;101581.77;1243322;114;21206;-87
2022/10/18 22:30:07;;;;;;;23.07;8.33;;;;;;;4.00;100.00;101566.67;1240663;114;21280;-86
2022/10/18 22:33:05;;;;;;;20.25;7.40;;;;;;;3.97;100.00;101564.39;1241698;114;21194;-87
2022/10/18 22:44:10;;;;;;;21.07;8.30;;;;;;;3.88;100.00;101553.52;1188368;117;21207;-87
2022/10/18 22:51:04;;;;;;;;;;;;;;;;;;;;;
2022/10/18 22:54:57;;;;;;;;;;;;;;;;;;;;;
2022/10/18 23:18:21;;;;;;;23.85;8.63;;;;;;;4.61;100.00;101503.84;1242565;113;21221;-86
2022/10/18 23:24:29;;;;;;;21.85;7.60;;;;;;;4.74;100.00;101496.73;1298736;109;21238;-86
2022/10/18 23:27:10;;;;;;;18.27;8.00;;;;;;;4.77;100.00;101488.33;1252665;112;27031;-87
2022/10/18 23:39:36;;;;;;;24.25;7.87;;;;;;;4.78;100.00;101475.80;;;;
2022/10/18 23:42:54;;;;;;;19.62;7.37;;;;;;;4.72;100.00;101471.25;1279737;110;21237;-86
2022/10/18 23:45:41;;;;;;;;;;;;;;;;;;;;;
2022/10/18 23:48:42;;;;;;;;;;;;;;;;;;;;;
